Impacts TAF Board
For situational awareness. Not to be used for flight planning purposes.
IDs:

KHOU - Houston/Hobby Arpt, TX, US

Issued at 1304 UTC 09 Dec 2019
Updated at 1306 UTC 09 Dec 2019
Potential Impact None Slight Moderate High
Time1253Z 09/14Z 09/15Z 09/16Z 09/17Z 09/18Z 09/19Z 09/20Z 09/21Z 09/22Z 09/23Z 10/00Z 10/01Z 10/02Z>>
Type OBS PRVL
  [TEMP]  
PRVL PRVL PRVL PRVL PRVL PRVL PRVL PRVL PRVL PRVL PRVL PRVL
VIS 5 >6 >6 >6 >6 >6 >6 >6 >6 >6 >6 >6 >6 >6
CIG 6 15
  [8]  
15 15 20 20 35 35 35 35 35 80 80 80
Cover BKN BKN
  [BKN]  
BKN BKN BKN BKN BKN BKN BKN BKN BKN BKN BKN BKN
FltCat IFR MVFR
  [IFR]  
MVFR MVFR MVFR MVFR VFR VFR VFR VFR VFR VFR VFR VFR
WX BR --
  [--]  
-- -- -- -- -- -- -- -- -- VCSH VCSH VCSH
WDir 170 200
[VRB]
200 200 220 220 220 220 220 220 220 190 190 190
WSpd 4 6
  [4]  
6 6 10 10 10 10 10 10 10 7 7 7
WGst -- --
  [--]  
-- -- 21 21 20 20 20 20 20 -- -- --
R04/22
XWnd -3 -2 -2 -2 -1 -1 -1 -1 -1 -1 -1 -4 -4 -4
XGst -- 0 -- -- -1 -1 -1 -1 -1 -1 -1 -- -- --
HWnd -2 -5 -5 -5 -10 -10 -10 -10 -10 -10 -10 -6 -6 -6
HGst -- 0 -- -- -21 -21 -20 -20 -20 -20 -20 -- -- --
R12/30
XWnd -2 -5 -5 -5 -10 -10 -10 -10 -10 -10 -10 -6 -6 -6
XGst -- 0 -- -- -21 -21 -20 -20 -20 -20 -20 -- -- --
HWnd 3 2 2 2 1 1 1 1 1 1 1 4 4 4
HGst -- 0 -- -- 1 1 1 1 1 1 1 -- -- --
R17/35
XWnd 1 -2 -2 -2 -7 -7 -7 -7 -7 -7 -7 -1 -1 -1
XGst -- 0 -- -- -14 -14 -13 -13 -13 -13 -13 -- -- --
HWnd 4 6 6 6 8 8 8 8 8 8 8 7 7 7
HGst -- 0 -- -- 16 16 15 15 15 15 15 -- -- --
Raw TAF
KHOU 091304Z 0913/1012 20006KT P6SM SCT008 BKN015
  TEMPO 0913/0915 VRB04KT BKN008
  FM091700 22010G21KT P6SM SCT015 BKN020
  FM091900 22010G20KT P6SM BKN035
  FM100000 19007KT P6SM VCSH SCT030 BKN080
  FM100400 VRB04KT 6SM -SHRA BKN019


Raw METAR
KHOU 091253Z 17004KT 5SM BR BKN006 BKN250 20/18 A2987 RMK AO2 SLP120 T02000183
KHOU 091216Z 20003KT 4SM BR BKN008 BKN018 BKN030 OVC250 19/18 A2986 RMK AO2 T01940183
KHOU 091153Z 18006KT 6SM BR FEW010 BKN016 BKN022 OVC250 19/18 A2985 RMK AO2 SLP114 T01940183 10194 20189 55002
KHOU 091110Z 00000KT 5SM BR BKN016 BKN032 OVC250 19/18 A2985 RMK AO2 T01890178
KHOU 091053Z 19004KT 6SM BR SCT014 SCT022 BKN034 BKN250 19/18 A2985 RMK AO2 SLP113 T01890178

METAR Board
Radar Display
Forecast Discussion
For situational awareness. Not to be used for flight planning purposes.